Time;durP1;ratioP1;P1;durP2;ratioP2;P2;SDS_P1;SDS_P2;PMS_P1;PMS_P2;Temp;Humidity;BMP_temperature;BMP_pressure;BME280_temperature;BME280_humidity;BME280_pressure;Samples;Min_cycle;Max_cycle;Signal;HPM_P1;HPM_P2
2023/09/04 00:09:07;;;;;;;1.02;0.80;;;;;;;;;;5092722;28;20683;-64
2023/09/04 00:11:34;;;;;;;1.30;1.00;;;;;;;;;;5098284;28;20131;-63
2023/09/04 00:14:01;;;;;;;1.73;1.10;;;;;;;;;;5101746;28;20093;-64
2023/09/04 00:16:29;;;;;;;1.23;1.10;;;;;;;;;;5102402;28;20093;-64
2023/09/04 00:18:56;;;;;;;2.17;1.30;;;;;;;;;;5102049;28;20058;-64
2023/09/04 00:21:23;;;;;;;1.90;1.35;;;;;;;;;;5102509;28;20052;-64
2023/09/04 00:23:50;;;;;;;2.58;1.40;;;;;;;;;;5104028;28;20513;-64
2023/09/04 00:26:19;;;;;;;1.92;1.42;;;;;;;;;;5104472;28;20052;-64
2023/09/04 00:28:47;;;;;;;1.92;1.58;;;;;;;;;;5094643;28;20050;-63
2023/09/04 00:31:14;;;;;;;1.80;1.45;;;;;;;;;;5100013;28;20040;-63
2023/09/04 00:33:41;;;;;;;2.30;1.70;;;;;;;;;;5098680;28;20055;-63
2023/09/04 00:36:08;;;;;;;2.85;2.00;;;;;;;;;;5099653;28;20052;-63
2023/09/04 00:38:36;;;;;;;3.38;2.20;;;;;;;;;;5105882;27;20149;-63
2023/09/04 00:44:27;;;;;;;2.70;1.98;;;;;;;;;;5110386;27;20079;-64
2023/09/04 00:46:54;;;;;;;2.70;1.90;;;;;;;;;;5099349;28;20044;-63
2023/09/04 00:49:22;;;;;;;3.50;2.08;;;;;;;;;;5104682;27;20067;-63
2023/09/04 00:51:50;;;;;;;3.83;2.42;;;;;;;;;;5109218;27;20052;-63
2023/09/04 00:54:18;;;;;;;4.50;3.00;;;;;;;;;;5105755;27;20142;-63
2023/09/04 00:56:47;;;;;;;10.25;2.88;;;;;;;;;;5101468;27;20554;-63
2023/09/04 00:59:14;;;;;;;3.95;2.70;;;;;;;;;;5100044;27;20044;-63
2023/09/04 01:01:42;;;;;;;17.42;3.30;;;;;;;;;;5111446;27;20406;-64
2023/09/04 01:04:10;;;;;;;5.40;3.55;;;;;;;;;;5109380;27;20104;-64
2023/09/04 01:06:39;;;;;;;12.57;2.60;;;;;;;;;;5107815;27;20121;-64
2023/09/04 01:09:08;;;;;;;6.38;3.03;;;;;;;;;;5110632;27;20052;-64
2023/09/04 01:11:44;;;;;;;10.38;2.72;;;;;;;;;;5103030;27;20513;-64
2023/09/04 01:14:12;;;;;;;3.25;2.30;;;;;;;;;;5108443;27;20044;-64
2023/09/04 01:16:40;;;;;;;3.38;2.30;;;;;;;;;;5108864;27;20055;-64
2023/09/04 01:19:11;;;;;;;3.00;2.40;;;;;;;;;;5106101;28;20554;-63
2023/09/04 01:21:40;;;;;;;4.10;2.67;;;;;;;;;;5110157;27;20055;-63
2023/09/04 01:24:09;;;;;;;3.25;2.08;;;;;;;;;;5100295;27;20131;-64
2023/09/04 01:26:38;;;;;;;2.63;2.13;;;;;;;;;;5104237;27;20079;-64
2023/09/04 01:29:07;;;;;;;11.13;2.28;;;;;;;;;;5101109;28;20047;-64
2023/09/04 01:31:36;;;;;;;2.80;2.10;;;;;;;;;;5102388;28;20139;-63
2023/09/04 01:34:06;;;;;;;3.05;2.50;;;;;;;;;;5110563;27;20063;-63
2023/09/04 01:36:34;;;;;;;2.50;2.10;;;;;;;;;;5102716;28;20495;-63
2023/09/04 01:39:03;;;;;;;2.83;2.10;;;;;;;;;;5107485;28;20062;-64
2023/09/04 01:41:30;;;;;;;2.88;2.20;;;;;;;;;;5107746;27;20051;-63
2023/09/04 01:43:57;;;;;;;2.88;2.13;;;;;;;;;;5103613;28;20436;-63
2023/09/04 01:46:24;;;;;;;3.08;2.20;;;;;;;;;;5108240;28;20043;-64
2023/09/04 01:48:52;;;;;;;3.00;2.17;;;;;;;;;;5099327;27;20046;-64
2023/09/04 01:51:19;;;;;;;2.22;1.70;;;;;;;;;;5099847;27;20052;-63
2023/09/04 01:53:46;;;;;;;2.58;1.98;;;;;;;;;;5089052;28;20059;-64
2023/09/04 01:56:15;;;;;;;2.75;1.95;;;;;;;;;;5102783;27;20050;-64
2023/09/04 01:58:42;;;;;;;1.90;1.50;;;;;;;;;;5096707;28;20052;-63
2023/09/04 02:01:09;;;;;;;2.67;1.85;;;;;;;;;;5104248;28;20509;-63
2023/09/04 02:03:37;;;;;;;3.65;1.70;;;;;;;;;;5111648;28;20048;-63
2023/09/04 02:06:06;;;;;;;2.95;2.10;;;;;;;;;;5096612;28;20135;-64
2023/09/04 02:08:34;;;;;;;2.67;1.75;;;;;;;;;;5109125;28;20135;-63
2023/09/04 02:11:01;;;;;;;4.85;1.90;;;;;;;;;;5100705;27;20651;-62
2023/09/04 02:13:29;;;;;;;3.90;1.85;;;;;;;;;;5110199;28;20062;-64
2023/09/04 02:15:57;;;;;;;2.60;2.13;;;;;;;;;;5105739;27;20491;-64
2023/09/04 02:18:24;;;;;;;2.47;1.90;;;;;;;;;;5089510;28;20059;-64
2023/09/04 02:20:51;;;;;;;2.63;2.03;;;;;;;;;;5105026;28;20491;-63
2023/09/04 02:23:18;;;;;;;4.07;2.15;;;;;;;;;;5083485;28;20047;-64
2023/09/04 02:25:47;;;;;;;2.30;1.90;;;;;;;;;;5110272;27;20439;-64
2023/09/04 02:28:15;;;;;;;2.90;1.90;;;;;;;;;;5107954;28;20048;-64
2023/09/04 02:30:43;;;;;;;2.25;1.70;;;;;;;;;;5106062;28;20047;-63
2023/09/04 02:33:11;;;;;;;2.65;1.98;;;;;;;;;;5102802;28;20047;-64
2023/09/04 02:35:38;;;;;;;3.30;2.05;;;;;;;;;;5106229;28;20060;-64
2023/09/04 02:38:05;;;;;;;2.63;1.90;;;;;;;;;;5112696;27;20415;-64
2023/09/04 02:40:32;;;;;;;3.22;1.98;;;;;;;;;;5084979;28;20059;-64
2023/09/04 02:43:00;;;;;;;2.72;2.05;;;;;;;;;;5078648;28;20419;-64
2023/09/04 02:45:27;;;;;;;4.47;2.30;;;;;;;;;;5100459;28;20044;-64
2023/09/04 02:47:55;;;;;;;3.17;2.45;;;;;;;;;;5107973;28;20051;-64
2023/09/04 02:50:23;;;;;;;3.08;2.30;;;;;;;;;;5099316;28;20039;-64
2023/09/04 02:52:50;;;;;;;3.00;2.30;;;;;;;;;;5114222;27;20128;-63
2023/09/04 02:55:18;;;;;;;3.22;2.70;;;;;;;;;;5101737;28;20127;-64
2023/09/04 02:57:45;;;;;;;5.20;3.40;;;;;;;;;;5100022;28;20402;-64
2023/09/04 03:00:13;;;;;;;4.40;3.03;;;;;;;;;;5085113;28;20052;-64
2023/09/04 03:02:40;;;;;;;5.40;3.15;;;;;;;;;;5103511;28;20398;-64
2023/09/04 03:05:09;;;;;;;4.32;3.30;;;;;;;;;;5114109;27;20051;-63
2023/09/04 03:07:37;;;;;;;4.57;3.05;;;;;;;;;;5113685;27;20056;-63
2023/09/04 03:10:04;;;;;;;3.78;2.88;;;;;;;;;;5106858;28;20115;-63
2023/09/04 03:12:32;;;;;;;4.45;3.20;;;;;;;;;;5094722;28;20404;-64
2023/09/04 03:15:00;;;;;;;6.88;3.13;;;;;;;;;;5106951;28;20059;-63
2023/09/04 03:17:27;;;;;;;3.95;2.80;;;;;;;;;;5085708;28;20052;-63
2023/09/04 03:19:55;;;;;;;3.63;2.70;;;;;;;;;;5107860;28;20376;-63
2023/09/04 03:22:24;;;;;;;4.32;2.88;;;;;;;;;;5108220;28;20043;-64
2023/09/04 03:24:51;;;;;;;3.92;2.78;;;;;;;;;;5108416;28;20047;-64
2023/09/04 03:27:19;;;;;;;5.38;2.78;;;;;;;;;;5104046;28;20053;-63
2023/09/04 03:29:46;;;;;;;3.88;2.78;;;;;;;;;;5104510;28;20044;-63
2023/09/04 03:32:13;;;;;;;4.28;2.47;;;;;;;;;;5095909;28;20046;-63
2023/09/04 03:34:41;;;;;;;3.60;2.83;;;;;;;;;;5107911;28;20054;-63
2023/09/04 03:37:08;;;;;;;4.00;2.70;;;;;;;;;;5089857;28;20044;-64
2023/09/04 03:39:38;;;;;;;5.55;2.67;;;;;;;;;;5109217;28;20044;-64
2023/09/04 03:42:05;;;;;;;4.47;2.90;;;;;;;;;;5103263;28;20055;-64
2023/09/04 03:44:33;;;;;;;3.95;2.90;;;;;;;;;;5106023;28;20047;-64
2023/09/04 03:47:00;;;;;;;3.75;2.63;;;;;;;;;;5092814;28;20051;-63
2023/09/04 03:49:27;;;;;;;4.05;2.60;;;;;;;;;;5098300;28;20059;-63
2023/09/04 03:51:54;;;;;;;4.75;2.42;;;;;;;;;;5095983;28;20040;-63
2023/09/04 03:54:22;;;;;;;3.65;2.50;;;;;;;;;;5098454;28;20101;-64
2023/09/04 03:56:51;;;;;;;3.75;2.28;;;;;;;;;;5104699;28;20044;-64
2023/09/04 03:59:18;;;;;;;3.50;2.28;;;;;;;;;;5102227;28;20149;-64
2023/09/04 04:01:45;;;;;;;5.43;2.53;;;;;;;;;;5090340;28;20439;-64
2023/09/04 04:04:13;;;;;;;3.15;2.28;;;;;;;;;;5094987;28;20040;-63
2023/09/04 04:06:40;;;;;;;2.70;1.83;;;;;;;;;;5086854;28;20051;-63
2023/09/04 04:09:07;;;;;;;3.50;1.98;;;;;;;;;;5103274;28;20096;-63
2023/09/04 04:11:35;;;;;;;6.63;2.55;;;;;;;;;;5107822;27;20044;-64
2023/09/04 04:14:04;;;;;;;2.42;1.80;;;;;;;;;;5116623;27;20055;-64
2023/09/04 04:16:34;;;;;;;3.30;2.17;;;;;;;;;;5110762;27;20103;-64
2023/09/04 04:19:01;;;;;;;3.83;2.40;;;;;;;;;;5110567;28;20105;-64
2023/09/04 04:21:29;;;;;;;4.85;2.40;;;;;;;;;;5110756;27;20058;-63
2023/09/04 04:23:56;;;;;;;3.25;2.55;;;;;;;;;;5111786;28;20051;-64
2023/09/04 04:26:23;;;;;;;3.17;2.28;;;;;;;;;;5106862;27;20058;-64
2023/09/04 04:28:50;;;;;;;3.67;2.40;;;;;;;;;;5107500;28;20498;-64
2023/09/04 04:31:19;;;;;;;3.95;2.58;;;;;;;;;;5111535;27;20505;-64
2023/09/04 04:33:46;;;;;;;2.85;2.17;;;;;;;;;;5091731;27;20483;-64
2023/09/04 04:36:13;;;;;;;3.55;1.92;;;;;;;;;;5109988;27;20046;-63
2023/09/04 04:38:41;;;;;;;2.90;1.67;;;;;;;;;;5108864;27;20499;-64
2023/09/04 04:41:08;;;;;;;2.83;1.80;;;;;;;;;;5109535;27;20088;-64
2023/09/04 04:43:36;;;;;;;2.05;1.45;;;;;;;;;;5104523;27;20557;-63
2023/09/04 04:46:03;;;;;;;3.15;1.77;;;;;;;;;;5109223;27;20047;-64
2023/09/04 04:48:31;;;;;;;3.20;2.03;;;;;;;;;;5089711;28;20051;-64
2023/09/04 04:50:59;;;;;;;2.97;1.95;;;;;;;;;;5106827;27;20394;-64
2023/09/04 04:53:26;;;;;;;2.88;2.00;;;;;;;;;;5100316;28;20048;-64
2023/09/04 04:55:53;;;;;;;3.25;2.08;;;;;;;;;;5106842;28;20055;-64
2023/09/04 04:58:20;;;;;;;3.63;2.38;;;;;;;;;;5115836;27;20524;-64
2023/09/04 05:00:48;;;;;;;3.38;2.45;;;;;;;;;;5092311;28;20048;-64
2023/09/04 05:03:15;;;;;;;3.70;2.30;;;;;;;;;;5091716;28;20048;-64
2023/09/04 05:05:46;;;;;;;4.70;2.05;;;;;;;;;;5120534;27;20051;-64
2023/09/04 05:08:13;;;;;;;2.78;2.08;;;;;;;;;;5108106;27;20047;-64
2023/09/04 05:10:41;;;;;;;3.08;2.10;;;;;;;;;;5111690;28;20051;-64
2023/09/04 05:13:08;;;;;;;3.30;2.25;;;;;;;;;;5113382;27;20434;-63
2023/09/04 05:15:35;;;;;;;4.38;2.50;;;;;;;;;;5109617;27;20043;-64
2023/09/04 05:18:02;;;;;;;3.88;2.65;;;;;;;;;;5102584;28;20537;-64
2023/09/04 05:20:29;;;;;;;5.70;3.38;;;;;;;;;;5102602;28;20047;-64
2023/09/04 05:22:58;;;;;;;4.20;3.13;;;;;;;;;;5108894;27;20051;-63
2023/09/04 05:25:25;;;;;;;6.53;3.30;;;;;;;;;;5104075;28;20079;-63
2023/09/04 05:27:53;;;;;;;3.70;2.42;;;;;;;;;;5085252;28;20070;-63
2023/09/04 05:30:20;;;;;;;3.50;2.50;;;;;;;;;;5103900;28;20039;-63
2023/09/04 05:32:47;;;;;;;4.25;2.78;;;;;;;;;;5088829;28;20494;-63
2023/09/04 05:35:15;;;;;;;4.40;3.13;;;;;;;;;;5109566;27;20043;-63
2023/09/04 05:37:42;;;;;;;4.45;2.65;;;;;;;;;;5107918;28;20508;-64
2023/09/04 05:40:11;;;;;;;5.72;3.92;;;;;;;;;;5100498;27;20044;-64
2023/09/04 05:42:38;;;;;;;5.93;3.90;;;;;;;;;;5103075;28;20501;-64
2023/09/04 05:45:06;;;;;;;5.78;3.65;;;;;;;;;;5109353;27;20503;-64
2023/09/04 05:47:34;;;;;;;4.85;3.40;;;;;;;;;;5107973;28;20131;-64
2023/09/04 05:50:01;;;;;;;5.72;4.10;;;;;;;;;;5106192;28;20044;-64
2023/09/04 05:52:28;;;;;;;5.25;3.70;;;;;;;;;;5096857;28;20053;-64
2023/09/04 05:54:55;;;;;;;6.00;4.07;;;;;;;;;;5103825;27;20040;-64
2023/09/04 05:57:24;;;;;;;6.38;4.07;;;;;;;;;;5105331;27;20043;-64
2023/09/04 05:59:52;;;;;;;6.80;4.13;;;;;;;;;;5101992;28;20479;-64
2023/09/04 06:02:19;;;;;;;5.88;4.13;;;;;;;;;;5109409;27;20124;-64
2023/09/04 06:04:46;;;;;;;5.35;3.97;;;;;;;;;;5102823;28;20046;-64
2023/09/04 06:07:15;;;;;;;8.05;4.65;;;;;;;;;;5101158;28;20047;-64
2023/09/04 06:09:44;;;;;;;6.18;4.50;;;;;;;;;;5112573;27;20051;-63
2023/09/04 06:12:12;;;;;;;8.10;4.40;;;;;;;;;;5110053;27;20495;-63
2023/09/04 06:14:41;;;;;;;8.57;5.07;;;;;;;;;;5102900;27;20055;-63
2023/09/04 06:17:08;;;;;;;7.85;5.03;;;;;;;;;;5100351;28;20044;-64
2023/09/04 06:19:35;;;;;;;7.88;5.72;;;;;;;;;;5107741;27;20051;-64
2023/09/04 06:22:03;;;;;;;7.13;5.00;;;;;;;;;;5100081;27;20040;-64
2023/09/04 06:24:30;;;;;;;9.57;5.90;;;;;;;;;;5102994;28;20130;-64
2023/09/04 06:26:57;;;;;;;7.28;5.28;;;;;;;;;;5109524;28;20052;-64
2023/09/04 06:29:25;;;;;;;9.02;6.18;;;;;;;;;;5099942;28;20043;-64
2023/09/04 06:31:53;;;;;;;7.85;5.35;;;;;;;;;;5090499;28;20079;-64
2023/09/04 06:34:20;;;;;;;8.18;5.80;;;;;;;;;;5099052;28;20061;-64
2023/09/04 06:36:48;;;;;;;6.85;5.38;;;;;;;;;;5095315;27;20056;-64
2023/09/04 06:39:15;;;;;;;8.30;5.57;;;;;;;;;;5104571;27;20048;-64
2023/09/04 06:41:42;;;;;;;12.82;6.47;;;;;;;;;;5088326;28;20105;-64
2023/09/04 06:44:10;;;;;;;8.15;5.85;;;;;;;;;;5105182;27;20483;-64
2023/09/04 06:46:37;;;;;;;8.48;5.97;;;;;;;;;;5101896;28;20044;-64
2023/09/04 06:49:05;;;;;;;11.32;6.53;;;;;;;;;;5099062;27;20128;-64
2023/09/04 06:51:34;;;;;;;8.48;6.22;;;;;;;;;;5120942;27;20043;-64
2023/09/04 06:54:03;;;;;;;10.70;6.85;;;;;;;;;;5108823;27;20082;-64
2023/09/04 06:56:30;;;;;;;8.93;6.53;;;;;;;;;;5098641;28;20190;-64
2023/09/04 06:58:57;;;;;;;10.60;6.75;;;;;;;;;;5106767;28;20055;-64
2023/09/04 07:01:25;;;;;;;9.40;6.20;;;;;;;;;;5101207;28;20090;-64
2023/09/04 07:03:52;;;;;;;10.30;6.30;;;;;;;;;;5108942;28;20051;-64
2023/09/04 07:06:21;;;;;;;9.50;5.38;;;;;;;;;;5088965;28;20192;-64
2023/09/04 07:08:50;;;;;;;8.57;5.80;;;;;;;;;;5108110;28;20482;-64
2023/09/04 07:11:17;;;;;;;7.72;5.50;;;;;;;;;;5106999;28;20040;-64
2023/09/04 07:13:44;;;;;;;8.43;5.80;;;;;;;;;;5109407;27;20043;-64
2023/09/04 07:16:12;;;;;;;10.13;6.15;;;;;;;;;;5104159;28;20047;-64
2023/09/04 07:18:39;;;;;;;8.43;5.30;;;;;;;;;;5109613;27;20048;-64
2023/09/04 07:21:06;;;;;;;8.48;5.45;;;;;;;;;;5110498;28;20051;-64
2023/09/04 07:23:35;;;;;;;10.45;4.72;;;;;;;;;;5110268;28;20051;-64
2023/09/04 07:26:02;;;;;;;6.70;4.45;;;;;;;;;;5107367;28;20406;-64
2023/09/04 07:28:29;;;;;;;5.78;4.32;;;;;;;;;;5098142;28;20131;-64
2023/09/04 07:31:09;;;;;;;8.00;4.10;;;;;;;;;;5082923;28;20040;-64
2023/09/04 07:33:37;;;;;;;6.13;3.80;;;;;;;;;;5099489;28;20101;-64
2023/09/04 07:36:04;;;;;;;6.57;3.78;;;;;;;;;;5098315;28;20054;-64
2023/09/04 07:38:31;;;;;;;5.60;3.90;;;;;;;;;;5104289;28;20544;-64
2023/09/04 07:41:04;;;;;;;11.30;3.60;;;;;;;;;;5100098;28;20089;-64
2023/09/04 07:43:32;;;;;;;4.57;3.38;;;;;;;;;;5108178;28;20514;-64
2023/09/04 07:46:00;;;;;;;4.65;3.20;;;;;;;;;;5108000;28;20051;-64
2023/09/04 07:48:27;;;;;;;5.50;3.60;;;;;;;;;;5091863;28;20499;-64
2023/09/04 07:50:56;;;;;;;6.43;2.97;;;;;;;;;;5110253;28;20047;-65
2023/09/04 07:53:23;;;;;;;4.57;3.40;;;;;;;;;;5107787;27;20078;-64
2023/09/04 07:55:52;;;;;;;4.50;3.08;;;;;;;;;;5107077;27;20471;-64
2023/09/04 07:58:20;;;;;;;4.20;2.90;;;;;;;;;;5099848;27;20093;-64
2023/09/04 08:00:48;;;;;;;4.65;3.10;;;;;;;;;;5107071;28;20060;-64
2023/09/04 08:03:15;;;;;;;5.15;2.97;;;;;;;;;;5099175;27;20055;-64
2023/09/04 08:05:43;;;;;;;4.20;2.50;;;;;;;;;;5100967;28;20043;-64
2023/09/04 08:08:10;;;;;;;5.13;3.40;;;;;;;;;;5102426;27;20499;-64
2023/09/04 08:10:40;;;;;;;3.88;2.67;;;;;;;;;;5103714;27;20502;-65
2023/09/04 08:13:08;;;;;;;7.88;3.38;;;;;;;;;;5108108;27;20419;-64
2023/09/04 08:15:37;;;;;;;5.22;3.15;;;;;;;;;;5109960;28;20167;-64
2023/09/04 08:18:04;;;;;;;3.65;2.92;;;;;;;;;;5102034;28;20348;-64
2023/09/04 08:20:31;;;;;;;4.25;2.80;;;;;;;;;;5104755;28;20054;-64
2023/09/04 08:22:59;;;;;;;3.05;2.20;;;;;;;;;;5101655;27;20403;-64
2023/09/04 08:25:26;;;;;;;3.42;2.10;;;;;;;;;;5082195;28;20048;-64
2023/09/04 08:27:53;;;;;;;4.45;3.13;;;;;;;;;;5083550;28;20051;-64
2023/09/04 08:30:20;;;;;;;5.13;2.72;;;;;;;;;;5099133;28;20128;-64
2023/09/04 08:32:49;;;;;;;5.43;2.30;;;;;;;;;;5107158;27;20487;-64
2023/09/04 08:35:17;;;;;;;3.50;2.60;;;;;;;;;;5098861;27;20063;-64
2023/09/04 08:37:45;;;;;;;3.63;2.20;;;;;;;;;;5110580;28;20044;-65
2023/09/04 08:40:13;;;;;;;3.08;2.13;;;;;;;;;;5106467;27;20096;-64
2023/09/04 08:42:41;;;;;;;5.25;2.28;;;;;;;;;;5114492;27;20050;-64
2023/09/04 08:45:09;;;;;;;4.65;1.90;;;;;;;;;;5104849;27;20051;-64
2023/09/04 08:47:39;;;;;;;2.97;2.25;;;;;;;;;;5108472;28;20105;-65
2023/09/04 08:50:08;;;;;;;4.63;2.33;;;;;;;;;;5110301;28;20055;-65
2023/09/04 08:52:37;;;;;;;3.58;2.20;;;;;;;;;;5104378;28;20047;-65
2023/09/04 08:55:04;;;;;;;3.08;1.95;;;;;;;;;;5095193;27;20109;-64
2023/09/04 08:57:33;;;;;;;4.38;2.15;;;;;;;;;;5107155;27;20075;-65
2023/09/04 09:00:00;;;;;;;4.68;1.90;;;;;;;;;;5103465;27;20047;-64
2023/09/04 09:02:28;;;;;;;3.38;2.13;;;;;;;;;;5110816;28;20435;-65
2023/09/04 09:04:56;;;;;;;2.03;1.60;;;;;;;;;;5090819;28;20044;-65
2023/09/04 09:07:27;;;;;;;2.72;1.77;;;;;;;;;;5114055;27;20361;-65
2023/09/04 09:09:54;;;;;;;2.60;1.77;;;;;;;;;;5104862;28;20471;-65
2023/09/04 09:12:21;;;;;;;3.72;2.00;;;;;;;;;;5107975;27;20044;-64
2023/09/04 09:14:48;;;;;;;3.28;1.67;;;;;;;;;;5099635;27;20054;-65
2023/09/04 09:17:16;;;;;;;3.67;1.88;;;;;;;;;;5107911;28;20052;-64
2023/09/04 09:19:43;;;;;;;3.90;2.30;;;;;;;;;;5102609;27;20050;-65
2023/09/04 09:22:12;;;;;;;3.33;1.73;;;;;;;;;;5104385;27;20435;-64
2023/09/04 09:24:54;;;;;;;3.25;1.80;;;;;;;;;;5101791;27;20504;-65
2023/09/04 09:27:22;;;;;;;2.53;1.67;;;;;;;;;;5103777;28;20051;-65
2023/09/04 09:29:50;;;;;;;4.15;2.00;;;;;;;;;;5110443;27;20047;-65
2023/09/04 09:32:18;;;;;;;3.45;1.90;;;;;;;;;;5108721;28;20087;-65
2023/09/04 09:34:55;;;;;;;3.55;2.15;;;;;;;;;;5083904;28;20388;-65
2023/09/04 09:37:23;;;;;;;4.00;1.95;;;;;;;;;;5094375;28;20048;-64
2023/09/04 09:39:50;;;;;;;2.13;1.65;;;;;;;;;;5093499;28;20058;-65
2023/09/04 09:42:20;;;;;;;4.20;2.30;;;;;;;;;;5099504;28;20410;-65
2023/09/04 09:44:47;;;;;;;3.83;1.90;;;;;;;;;;5108738;27;20629;-64
2023/09/04 09:47:15;;;;;;;2.00;1.42;;;;;;;;;;5104072;28;20055;-65
2023/09/04 09:49:43;;;;;;;2.47;1.60;;;;;;;;;;5105705;27;20052;-65
2023/09/04 09:52:11;;;;;;;3.15;1.40;;;;;;;;;;5093881;28;20160;-65
2023/09/04 09:54:39;;;;;;;2.60;1.67;;;;;;;;;;5089974;28;20055;-65
2023/09/04 09:57:08;;;;;;;3.63;1.95;;;;;;;;;;5106423;27;20059;-65
2023/09/04 09:59:38;;;;;;;3.50;1.95;;;;;;;;;;5100523;28;20342;-65
2023/09/04 10:02:06;;;;;;;2.53;1.40;;;;;;;;;;5106458;27;20379;-65
2023/09/04 10:04:34;;;;;;;3.67;1.50;;;;;;;;;;5105360;28;20754;-65
2023/09/04 10:07:02;;;;;;;3.60;1.50;;;;;;;;;;5109544;27;20058;-64
2023/09/04 10:09:30;;;;;;;1.85;1.25;;;;;;;;;;5098633;27;20063;-65
2023/09/04 10:12:04;;;;;;;2.25;1.52;;;;;;;;;;5103330;27;20048;-65
2023/09/04 10:14:34;;;;;;;3.60;1.80;;;;;;;;;;5080719;28;20464;-65
2023/09/04 10:17:04;;;;;;;3.13;1.85;;;;;;;;;;5105181;27;20043;-65
2023/09/04 10:19:32;;;;;;;2.08;1.65;;;;;;;;;;5086118;28;20495;-65
2023/09/04 10:22:01;;;;;;;3.38;1.63;;;;;;;;;;5096714;28;20051;-64
2023/09/04 10:24:36;;;;;;;2.50;1.48;;;;;;;;;;5100241;27;20047;-65
2023/09/04 10:27:08;;;;;;;2.78;1.60;;;;;;;;;;5103538;28;20122;-65
2023/09/04 10:29:40;;;;;;;2.20;1.30;;;;;;;;;;5105570;27;20124;-65
2023/09/04 10:32:09;;;;;;;4.70;1.83;;;;;;;;;;5105888;28;20043;-65
2023/09/04 10:34:36;;;;;;;2.10;1.30;;;;;;;;;;5103192;28;20040;-65
2023/09/04 10:37:04;;;;;;;2.38;1.70;;;;;;;;;;5106551;28;20043;-65
2023/09/04 10:39:32;;;;;;;2.83;1.40;;;;;;;;;;5102092;28;20044;-65
2023/09/04 10:42:00;;;;;;;3.03;1.55;;;;;;;;;;5097217;27;20485;-64
2023/09/04 10:44:45;;;;;;;2.60;1.50;;;;;;;;;;5108268;27;20491;-65
2023/09/04 10:47:14;;;;;;;1.85;1.38;;;;;;;;;;5104634;28;20048;-65
2023/09/04 10:49:42;;;;;;;2.20;1.35;;;;;;;;;;5108809;28;20172;-65
2023/09/04 10:52:10;;;;;;;2.70;1.55;;;;;;;;;;5106392;27;20447;-65
2023/09/04 10:54:37;;;;;;;2.33;1.50;;;;;;;;;;5104578;28;20055;-64
2023/09/04 10:57:07;;;;;;;1.88;1.20;;;;;;;;;;5106445;28;20044;-65
2023/09/04 11:00:00;;;;;;;1.80;1.48;;;;;;;;;;5090542;28;20051;-65
2023/09/04 11:02:29;;;;;;;2.42;1.50;;;;;;;;;;5110368;27;20047;-65
2023/09/04 11:04:56;;;;;;;3.75;1.70;;;;;;;;;;5103566;27;20055;-64
2023/09/04 11:07:28;;;;;;;2.60;1.40;;;;;;;;;;5110451;27;20058;-65
2023/09/04 11:10:00;;;;;;;3.10;1.50;;;;;;;;;;5108753;27;20074;-65
2023/09/04 11:12:27;;;;;;;2.28;1.30;;;;;;;;;;5099034;28;20051;-65
2023/09/04 11:14:55;;;;;;;2.05;1.30;;;;;;;;;;5094596;27;20051;-65
2023/09/04 11:17:23;;;;;;;1.90;1.40;;;;;;;;;;5107574;28;20491;-65
2023/09/04 11:19:52;;;;;;;2.50;1.77;;;;;;;;;;5105017;28;20056;-65
2023/09/04 11:22:21;;;;;;;1.50;1.20;;;;;;;;;;5113849;27;20042;-65
2023/09/04 11:24:49;;;;;;;2.17;1.75;;;;;;;;;;5108320;28;20048;-65
2023/09/04 11:27:18;;;;;;;2.25;1.40;;;;;;;;;;5116453;27;20433;-65
2023/09/04 11:29:45;;;;;;;2.20;1.48;;;;;;;;;;5111240;28;20071;-65
2023/09/04 11:32:13;;;;;;;2.30;1.67;;;;;;;;;;5109864;28;20048;-65
2023/09/04 11:34:43;;;;;;;3.28;1.42;;;;;;;;;;5082249;28;20499;-65
2023/09/04 11:37:12;;;;;;;2.05;1.48;;;;;;;;;;5105155;28;20505;-65
2023/09/04 11:39:52;;;;;;;1.45;1.25;;;;;;;;;;5106786;28;20491;-65
2023/09/04 11:42:20;;;;;;;2.00;1.20;;;;;;;;;;5097366;28;20051;-65
2023/09/04 11:44:49;;;;;;;2.22;1.50;;;;;;;;;;5105829;28;20039;-65
2023/09/04 11:47:17;;;;;;;4.40;1.40;;;;;;;;;;5101715;28;20051;-65
2023/09/04 11:49:44;;;;;;;1.33;1.10;;;;;;;;;;5108153;28;20143;-65
2023/09/04 11:52:13;;;;;;;1.83;1.15;;;;;;;;;;5114915;28;20494;-66
2023/09/04 11:54:41;;;;;;;1.90;1.30;;;;;;;;;;5119501;28;20498;-63
2023/09/04 11:57:09;;;;;;;2.80;1.20;;;;;;;;;;5102018;28;20548;-63
2023/09/04 11:59:36;;;;;;;1.70;1.20;;;;;;;;;;5107826;28;20043;-64
2023/09/04 12:02:04;;;;;;;1.40;1.10;;;;;;;;;;5107464;28;20047;-64
2023/09/04 12:04:32;;;;;;;2.95;1.30;;;;;;;;;;5111333;28;20514;-64
2023/09/04 12:07:00;;;;;;;2.33;1.40;;;;;;;;;;5112605;28;20044;-64
2023/09/04 12:09:28;;;;;;;3.63;1.10;;;;;;;;;;5108352;28;20086;-64
2023/09/04 12:11:56;;;;;;;2.05;1.40;;;;;;;;;;5096980;28;20043;-64
2023/09/04 12:14:23;;;;;;;1.80;1.20;;;;;;;;;;5083702;28;20048;-64
2023/09/04 12:16:50;;;;;;;2.28;1.30;;;;;;;;;;5106761;28;20372;-64
2023/09/04 12:19:18;;;;;;;1.35;1.20;;;;;;;;;;5102618;28;20050;-65
2023/09/04 12:21:45;;;;;;;3.17;1.33;;;;;;;;;;5103687;28;20050;-64
2023/09/04 12:24:13;;;;;;;1.67;1.45;;;;;;;;;;5107707;28;20064;-64
2023/09/04 12:26:41;;;;;;;3.40;1.52;;;;;;;;;;5105633;28;20048;-64
2023/09/04 12:29:09;;;;;;;1.45;1.30;;;;;;;;;;5106098;27;20375;-64
2023/09/04 12:31:37;;;;;;;2.50;1.33;;;;;;;;;;5086899;28;20059;-64
2023/09/04 12:34:05;;;;;;;1.50;1.40;;;;;;;;;;5107397;28;20538;-64
2023/09/04 12:36:32;;;;;;;1.70;1.50;;;;;;;;;;5109416;28;20056;-64
2023/09/04 12:39:00;;;;;;;1.50;1.40;;;;;;;;;;5103779;28;20048;-64
2023/09/04 12:41:27;;;;;;;2.15;1.63;;;;;;;;;;5110267;27;20051;-64
2023/09/04 12:43:57;;;;;;;3.25;1.75;;;;;;;;;;5102535;27;20071;-65
2023/09/04 12:46:25;;;;;;;1.70;1.38;;;;;;;;;;5083760;28;20040;-64
2023/09/04 12:48:52;;;;;;;2.42;1.40;;;;;;;;;;5103888;28;20044;-64
2023/09/04 12:51:20;;;;;;;1.75;1.45;;;;;;;;;;5110097;28;20495;-64
2023/09/04 12:53:47;;;;;;;3.40;1.50;;;;;;;;;;5109007;27;20051;-65
2023/09/04 12:56:14;;;;;;;1.98;1.33;;;;;;;;;;5100389;27;20058;-64
2023/09/04 12:58:41;;;;;;;1.65;1.40;;;;;;;;;;5100900;27;20063;-64
2023/09/04 13:01:10;;;;;;;3.83;1.48;;;;;;;;;;5090046;28;20043;-65
2023/09/04 13:03:38;;;;;;;2.03;1.35;;;;;;;;;;5107839;27;20056;-65
2023/09/04 13:06:06;;;;;;;1.45;1.20;;;;;;;;;;5099797;28;20047;-64
2023/09/04 13:08:33;;;;;;;2.00;1.40;;;;;;;;;;5111385;27;20401;-64
2023/09/04 13:11:00;;;;;;;1.75;1.60;;;;;;;;;;5100978;28;20513;-65
2023/09/04 13:13:28;;;;;;;1.33;1.23;;;;;;;;;;5106873;27;20127;-65
2023/09/04 13:15:55;;;;;;;1.70;1.40;;;;;;;;;;5103121;27;20035;-64
2023/09/04 13:18:25;;;;;;;1.77;1.50;;;;;;;;;;5110893;27;20044;-64
2023/09/04 13:20:52;;;;;;;1.90;1.40;;;;;;;;;;5104386;27;20221;-65
2023/09/04 13:23:20;;;;;;;1.80;1.60;;;;;;;;;;5106423;27;20483;-65
2023/09/04 13:25:47;;;;;;;3.85;1.60;;;;;;;;;;5115264;27;20054;-64
2023/09/04 13:28:14;;;;;;;2.38;1.42;;;;;;;;;;5118266;27;20494;-64
2023/09/04 13:30:41;;;;;;;2.22;1.58;;;;;;;;;;5105203;27;20048;-65
2023/09/04 13:33:09;;;;;;;1.52;1.30;;;;;;;;;;5109505;27;20402;-64
2023/09/04 13:35:37;;;;;;;1.33;1.23;;;;;;;;;;5084763;28;21181;-65
2023/09/04 13:38:04;;;;;;;1.65;1.55;;;;;;;;;;5109176;27;20050;-65
2023/09/04 13:40:35;;;;;;;2.17;1.58;;;;;;;;;;5101187;28;20071;-65
2023/09/04 13:43:02;;;;;;;1.98;1.58;;;;;;;;;;5102104;27;20660;-65
2023/09/04 13:45:30;;;;;;;2.05;1.50;;;;;;;;;;5107427;27;20056;-64
2023/09/04 13:47:57;;;;;;;1.70;1.30;;;;;;;;;;5105668;28;20063;-64
2023/09/04 13:50:24;;;;;;;2.67;1.60;;;;;;;;;;5108680;27;20126;-64
2023/09/04 13:52:53;;;;;;;1.90;1.50;;;;;;;;;;5109029;27;20136;-64
2023/09/04 13:55:20;;;;;;;2.13;1.45;;;;;;;;;;5112889;27;20047;-64
2023/09/04 13:57:47;;;;;;;2.08;1.50;;;;;;;;;;5102173;27;20050;-64
2023/09/04 14:00:15;;;;;;;1.58;1.30;;;;;;;;;;5104649;27;20128;-64
2023/09/04 14:02:43;;;;;;;1.65;1.48;;;;;;;;;;5108217;27;20048;-65
2023/09/04 14:05:11;;;;;;;1.55;1.40;;;;;;;;;;5105411;27;20134;-64
2023/09/04 14:07:38;;;;;;;1.67;1.35;;;;;;;;;;5091623;28;20552;-64
2023/09/04 14:10:08;;;;;;;3.35;1.45;;;;;;;;;;5088092;27;20054;-64
2023/09/04 14:12:36;;;;;;;1.70;1.33;;;;;;;;;;5123663;27;20142;-65
2023/09/04 14:15:03;;;;;;;1.45;1.10;;;;;;;;;;5109540;27;20430;-64
2023/09/04 14:17:30;;;;;;;1.63;1.40;;;;;;;;;;5105160;27;20047;-64
2023/09/04 14:19:57;;;;;;;1.90;1.33;;;;;;;;;;5110664;27;20062;-64
2023/09/04 14:22:25;;;;;;;1.85;1.20;;;;;;;;;;5111450;27;20043;-64
2023/09/04 14:24:52;;;;;;;1.55;1.30;;;;;;;;;;5113253;27;20063;-64
2023/09/04 14:27:21;;;;;;;1.35;1.13;;;;;;;;;;5100244;27;20130;-64
2023/09/04 14:29:48;;;;;;;1.30;1.17;;;;;;;;;;5109942;27;20805;-64
2023/09/04 14:32:15;;;;;;;1.75;1.20;;;;;;;;;;5114543;27;20486;-64
2023/09/04 14:34:42;;;;;;;2.00;1.20;;;;;;;;;;5081820;28;20050;-65
2023/09/04 14:37:10;;;;;;;3.38;1.30;;;;;;;;;;5100492;27;20044;-64
2023/09/04 14:39:39;;;;;;;1.60;1.20;;;;;;;;;;5104070;27;20130;-64
2023/09/04 14:42:07;;;;;;;2.20;1.40;;;;;;;;;;5116773;27;20048;-65
2023/09/04 14:44:35;;;;;;;1.85;1.40;;;;;;;;;;5099212;27;20058;-64
2023/09/04 14:47:02;;;;;;;3.88;1.40;;;;;;;;;;5109839;27;20494;-65
2023/09/04 14:49:30;;;;;;;1.90;1.40;;;;;;;;;;5110052;27;20058;-65
2023/09/04 14:51:57;;;;;;;2.63;1.25;;;;;;;;;;5102763;27;20104;-64
2023/09/04 14:54:24;;;;;;;2.20;1.38;;;;;;;;;;5116036;27;20071;-64
2023/09/04 14:56:51;;;;;;;2.25;1.00;;;;;;;;;;5103474;27;20044;-65
2023/09/04 14:59:19;;;;;;;1.33;1.23;;;;;;;;;;5114728;27;20046;-64